Kuala Lumpur International Airport
WMKK : now visible

Airfield :











YOU CAN JOIN US ON...

 
LOGIN :

Register | Disclaimer

   EN    FR    IT 

 









Legend :    VFR   Marginal VFR   IFR   Intensive IFR   Very Intensive IFR
Visi :
Ceiling :
>= 8 km
>= 3000ft
5 to 8 km
1000 to 3000 ft
1500m to 5 km
500 to 1000 ft
800 to 1500m
200 to 500 ft
< 800m
< 200 ft
Symbols :   Thunderstorms  Fog  Heavy snow  Heavy precipitations  Wind > 20 kt






- Airport Elevation : 69 ft
- IATA code : KUL


WMKK - Kuala Lumpur International

CURRENT METAR :
  • 180700Z 22005KT 170V290 6000 1500W SHRA FEW008 FEW016CB SCT018 28/26 Q1007 TEMPO 2000 +SHRA

EXPIRED METARs :
  • 180630Z 25003KT 150V320 9999 FEW017CB SCT018 31/25 Q1008 NOSIG
  • 180600Z 27004KT 190V340 9999 FEW017CB SCT018 31/25 Q1008 NOSIG
  • 180530Z VRB03KT 9999 FEW017CB SCT018 31/25 Q1009 NOSIG
  • 180500Z 25004KT 200V310 9999 FEW017CB SCT018 30/25 Q1009 NOSIG
  • 180430Z VRB03KT 9999 FEW017CB SCT018 30/25 Q1010 NOSIG

TAF TAF WMKK
Valid from the 18 at 06:00 until the 19 at 12:00 UTC


180500Z 1806/1912 30006KT 9999 FEW018
TEMPO 1807/1812 19008KT 4000 TSRA FEW010 FEW017CB SCT020
PROB30
TEMPO 1820/1900 5000 BR FEW008



MET'MAP, your aeronautical weather chart ! - Copyright ORBIFLY December 2007 - Disclaimer

ORBIFLY MET'MAP TEAM :

Programming & Development : Alexandra Zaïnal
Concept & Development : Baudouin d'Aumeries
Co-Development & Prog : Marc-Olivier Méhu
Technical & hardware support : Manuel Goepfert

Contact : metmap@orbifly.com




SOURCES & CREDITS :

   NOAA       Earth
Advisory